CYVP Airport Information

Runway Information
Runway 07 Length 6000 ft width 150 ft
Elevation 73 ft Threshold 0 ft Heading 43
Runway 25 Length 6000 ft Width 150 ft
Elevation 106 ft Threshold 0 ft Heading 223
Runway 13 Length 5000 ft width 150 ft
Elevation 129 ft Threshold 0 ft Heading 103
Runway 31 Length 5000 ft Width 150 ft
Elevation 61 ft Threshold 0 ft Heading 283
Airport Frequencies
Type A/G Name MF Frequency 122.2 MHZ
Type CNTR Name MONTREAL C Frequency 135.1 MHZ
Type INFO Name ARPT RDO Frequency 122.2 MHZ
Type RCO Name QUEBEC RDO Frequency 123.55 MHZ
Airport Navaids
Type NDB Name Kujack Frequency 390 KHZ
Type VOR-DME Name Kujack Frequency 112500 KHZ
Airport Weather Information & NOTAM
ADDS - METARS form results

(0942 UTC 06 April 2020)
Data provider http://aviationweather.gov/metar/data/
 
METAR text: CYVP 060926Z 01011KT 12SM -SN DRSN OVC009 OVC014 M08/M10 A2996 RMK SF7SC1 SLP152
Conditions at: CYVP (KUUJJUAQ AIRPORT, QC, CA) observed 0926 UTC 06 April 2020
Temperature: -8.0°C (18°F)
Dewpoint: -10.0°C (14°F) [RH = 85%]
Pressure (altimeter): 29.96 inches Hg (1014.6 mb)
[Sea-level pressure: 1015.2 mb]
Winds: from the N (10 degrees) at 13 MPH (11 knots; 5.7 m/s)
Visibility: 12 miles (19 km)
Ceiling: 900 feet AGL
Clouds: overcast cloud deck at 900 feet AGL
overcast cloud deck at 1400 feet AGL
Weather: -SN DRSN  (light snow, low drifting snow)

METAR text: CYVP 060900Z 01009G16KT 12SM -SN DRSN OVC014 M08/M10 A2996 RMK SC8 SLP151
Conditions at: CYVP (KUUJJUAQ AIRPORT, QC, CA) observed 0900 UTC 06 April 2020
Temperature: -8.0°C (18°F)
Dewpoint: -10.0°C (14°F) [RH = 85%]
Pressure (altimeter): 29.96 inches Hg (1014.6 mb)
[Sea-level pressure: 1015.1 mb]
Winds: from the N (10 degrees) at 10 MPH (9 knots; 4.6 m/s)
gusting to 18 MPH (16 knots; 8.2 m/s)
Visibility: 12 miles (19 km)
Ceiling: 1400 feet AGL
Clouds: overcast cloud deck at 1400 feet AGL
Weather: -SN DRSN  (light snow, low drifting snow)

METAR text: CYVP 060844Z 01013G18KT 10SM -SN DRSN OVC013 M08/M10 A2996 RMK SC8 SLP151
Conditions at: CYVP (KUUJJUAQ AIRPORT, QC, CA) observed 0844 UTC 06 April 2020
Temperature: -8.0°C (18°F)
Dewpoint: -10.0°C (14°F) [RH = 85%]
Pressure (altimeter): 29.96 inches Hg (1014.6 mb)
[Sea-level pressure: 1015.1 mb]
Winds: from the N (10 degrees) at 15 MPH (13 knots; 6.7 m/s)
gusting to 21 MPH (18 knots; 9.3 m/s)
Visibility: 10 or more miles (16+ km)
Ceiling: 1300 feet AGL
Clouds: overcast cloud deck at 1300 feet AGL
Weather: -SN DRSN  (light snow, low drifting snow)

Forecast for: AMD
Text: TAF AMD CYVP 060930Z 0609/0618 01010KT P6SM FEW008 OVC012
Forecast period: 0900 to 1300 UTC 06 April 2020
Forecast type: FROM: standard forecast or significant change
Winds: from the N (10 degrees) at 12 MPH (10 knots; 5.1 m/s)
Visibility: 6 or more miles 10+ km)
Ceiling: 1200 feet AGL
Clouds: few clouds at 800 feet AGL
overcast cloud deck at 1200 feet AGL
Weather: no significant weather forecast for this period
Text: TEMPO 0609/0613 P6SM -SN OVC008
Forecast period: 0900 to 1300 UTC 06 April 2020
Forecast type: TEMPORARY: The following changes expected for less than half the time period
Visibility: 6 or more miles 10+ km)
Ceiling: 800 feet AGL
Clouds: overcast cloud deck at 800 feet AGL
Weather: -SN  (light snow)
Text: FM061300 01010G20KT P6SM -SN BKN015
Forecast period: 1300 to 1800 UTC 06 April 2020
Forecast type: FROM: standard forecast or significant change
Winds: from the N (10 degrees) at 12 MPH (10 knots; 5.1 m/s)
gusting to 23 MPH (20 knots; 10.3 m/s)
Visibility: 6 or more miles 10+ km)
Ceiling: 1500 feet AGL
Clouds: broken clouds at 1500 feet AGL
Weather: -SN  (light snow)
Text: BECMG 0613/0615 P6SM NSW FEW015 RMK NXT FCST BY 061200Z
Forecast period: 1300 to 1800 UTC 06 April 2020
Forecast type: BECOMING: Conditions expected to become as follows by 1500 UTC 06 April 2020
Winds: from the N (10 degrees) at 12 MPH (10 knots; 5.1 m/s)
gusting to 23 MPH (20 knots; 10.3 m/s)
Visibility: 6 or more miles 10+ km)
Ceiling: at least 12,000 feet AGL
Clouds: few clouds at 1500 feet AGL
Weather: NSW  (no significant weather)